createdAt,value
2018-02-14T00:00:34.245Z,79.10
2018-02-14T00:03:01.707Z,79.20
2018-02-14T00:05:29.179Z,79.20
2018-02-14T00:07:56.630Z,79.60
2018-02-14T00:10:24.870Z,80.10
2018-02-14T00:12:52.338Z,80.20
2018-02-14T00:15:19.802Z,80.40
2018-02-14T00:17:47.271Z,80.80
2018-02-14T00:20:14.746Z,81.00
2018-02-14T00:22:42.206Z,80.90
2018-02-14T00:25:09.674Z,80.60
2018-02-14T00:27:37.139Z,81.30
2018-02-14T00:30:04.611Z,81.30
2018-02-14T00:32:32.083Z,81.20
2018-02-14T00:34:59.559Z,81.20
2018-02-14T00:37:27.034Z,80.80
2018-02-14T00:39:55.278Z,81.20
2018-02-14T00:42:22.738Z,81.20
2018-02-14T00:44:50.262Z,81.50
2018-02-14T00:47:17.723Z,81.90
2018-02-14T00:49:45.199Z,82.10
2018-02-14T00:52:12.675Z,81.90
2018-02-14T00:54:40.138Z,82.10
2018-02-14T00:57:07.596Z,82.30
2018-02-14T00:59:35.053Z,82.20
2018-02-14T01:02:03.303Z,82.20
2018-02-14T01:04:30.770Z,82.10
2018-02-14T01:06:58.242Z,82.10
2018-02-14T01:09:25.710Z,82.40
2018-02-14T01:11:53.958Z,82.90
2018-02-14T01:14:21.442Z,82.80
2018-02-14T01:16:49.674Z,82.60
2018-02-14T01:19:17.130Z,82.60
2018-02-14T01:21:50.422Z,83.20
2018-02-14T01:24:17.888Z,83.40
2018-02-14T01:26:45.357Z,83.50
2018-02-14T01:29:12.829Z,83.10
2018-02-14T01:31:41.082Z,83.80
2018-02-14T01:34:08.542Z,83.80
2018-02-14T01:36:36.003Z,83.70
2018-02-14T01:39:04.229Z,83.60
2018-02-14T01:41:31.717Z,83.40
2018-02-14T01:43:59.179Z,83.60
2018-02-14T01:46:26.646Z,83.30
2018-02-14T01:48:54.105Z,83.20
2018-02-14T01:51:21.562Z,83.70
2018-02-14T01:53:49.791Z,83.40
2018-02-14T01:56:17.258Z,83.30
2018-02-14T01:58:44.725Z,82.90
2018-02-14T02:01:12.197Z,83.30
2018-02-14T02:03:39.674Z,83.70
2018-02-14T02:06:07.902Z,84.10
2018-02-14T02:08:35.347Z,84.10
2018-02-14T02:11:02.808Z,84.40
2018-02-14T02:13:30.277Z,84.50
2018-02-14T02:15:57.712Z,85.00
2018-02-14T02:18:25.167Z,85.00
2018-02-14T02:20:52.634Z,85.00
2018-02-14T02:23:20.111Z,85.20
2018-02-14T02:25:47.571Z,84.90
2018-02-14T02:28:15.039Z,84.40
2018-02-14T02:30:43.270Z,84.00
2018-02-14T02:33:10.922Z,83.70
2018-02-14T02:35:38.380Z,83.70
2018-02-14T02:38:05.870Z,84.20
2018-02-14T02:40:33.343Z,84.50
2018-02-14T02:43:00.817Z,84.50
2018-02-14T02:45:29.046Z,85.50
2018-02-14T02:47:56.515Z,85.50
2018-02-14T02:50:23.971Z,85.10
2018-02-14T02:52:51.451Z,84.90
2018-02-14T02:55:19.694Z,85.30
2018-02-14T02:57:47.172Z,85.30
2018-02-14T03:00:14.639Z,85.80
2018-02-14T03:02:42.866Z,85.80
2018-02-14T03:05:10.336Z,85.80
2018-02-14T03:07:37.790Z,85.00
2018-02-14T03:10:05.267Z,84.80
2018-02-14T03:12:32.719Z,84.90
2018-02-14T03:15:00.187Z,85.20
2018-02-14T03:17:28.414Z,86.40
2018-02-14T03:19:55.880Z,86.40
2018-02-14T03:22:23.342Z,86.40
2018-02-14T03:24:50.814Z,86.20
2018-02-14T03:27:18.275Z,86.30
2018-02-14T03:29:45.731Z,86.00
2018-02-14T03:32:13.187Z,85.30
2018-02-14T03:34:40.642Z,85.20
2018-02-14T03:37:08.101Z,85.40
2018-02-14T03:39:35.578Z,85.40
2018-02-14T03:42:03.795Z,85.90
2018-02-14T03:44:31.258Z,85.90
2018-02-14T03:46:58.725Z,86.30
2018-02-14T03:49:26.198Z,86.20
2018-02-14T03:51:53.663Z,85.80
2018-02-14T03:54:21.888Z,85.80
2018-02-14T03:56:49.350Z,85.90
2018-02-14T03:59:16.821Z,86.60
2018-02-14T04:01:44.282Z,86.80
2018-02-14T04:04:11.739Z,86.60
2018-02-14T04:06:39.208Z,86.30
2018-02-14T04:09:06.675Z,86.40
2018-02-14T04:11:34.140Z,86.20
2018-02-14T04:14:02.379Z,86.30
2018-02-14T04:16:29.835Z,86.30
2018-02-14T04:18:57.302Z,86.10
2018-02-14T04:21:24.767Z,86.30
2018-02-14T04:23:52.222Z,86.80
2018-02-14T04:26:19.695Z,87.00
2018-02-14T04:28:47.926Z,86.70
2018-02-14T04:31:15.377Z,86.60
2018-02-14T04:33:42.839Z,87.50
2018-02-14T04:36:10.292Z,87.50
2018-02-14T04:38:37.758Z,87.50
2018-02-14T04:41:05.206Z,87.40
2018-02-14T04:43:32.657Z,87.40
2018-02-14T04:46:00.130Z,87.40
2018-02-14T04:48:27.586Z,87.60
2018-02-14T04:50:55.044Z,87.70
2018-02-14T04:53:22.499Z,87.70
2018-02-14T04:55:49.964Z,87.30
2018-02-14T04:58:17.413Z,87.60
2018-02-14T05:00:44.878Z,87.70
2018-02-14T05:03:12.376Z,87.30
2018-02-14T05:05:39.800Z,87.00
2018-02-14T05:08:07.248Z,86.90
2018-02-14T05:10:34.706Z,86.50
2018-02-14T05:13:02.159Z,86.70
2018-02-14T05:15:29.615Z,86.90
2018-02-14T05:17:57.074Z,86.50
2018-02-14T05:20:24.528Z,86.60
2018-02-14T05:22:51.989Z,87.20
2018-02-14T05:25:19.439Z,87.60
2018-02-14T05:27:46.895Z,87.50
2018-02-14T05:30:14.354Z,87.60
2018-02-14T05:32:41.814Z,87.80
2018-02-14T05:35:09.269Z,88.10
2018-02-14T05:37:36.738Z,87.90
2018-02-14T05:40:04.178Z,87.90
2018-02-14T05:42:31.638Z,87.80
2018-02-14T05:44:59.099Z,88.10
2018-02-14T05:47:26.555Z,88.60
2018-02-14T05:49:54.011Z,88.20
2018-02-14T05:52:21.485Z,88.40
2018-02-14T05:54:49.711Z,88.90
2018-02-14T05:57:17.178Z,89.00
2018-02-14T05:59:44.632Z,89.10
2018-02-14T06:02:12.098Z,88.90
2018-02-14T06:04:39.555Z,88.70
2018-02-14T06:07:07.014Z,88.50
2018-02-14T06:09:34.469Z,87.90
2018-02-14T06:12:02.139Z,87.70
2018-02-14T06:14:29.606Z,88.00
2018-02-14T06:16:57.821Z,88.60
2018-02-14T06:19:25.281Z,88.50
2018-02-14T06:21:52.764Z,88.40
2018-02-14T06:24:20.194Z,88.20
2018-02-14T06:26:47.651Z,88.20
2018-02-14T06:29:15.110Z,88.40
2018-02-14T06:31:42.563Z,88.40
2018-02-14T06:34:10.018Z,88.00
2018-02-14T06:36:37.475Z,87.90
2018-02-14T06:39:04.929Z,87.60
2018-02-14T06:41:32.386Z,87.50
2018-02-14T06:43:59.850Z,87.50
2018-02-14T06:46:27.301Z,87.40
2018-02-14T06:48:54.753Z,87.50
2018-02-14T06:51:23.199Z,87.50
2018-02-14T06:53:51.426Z,87.20
2018-02-14T06:56:18.881Z,87.10
2018-02-14T06:58:46.340Z,87.40
2018-02-14T07:01:13.791Z,87.30
2018-02-14T07:03:42.015Z,88.70
2018-02-14T07:06:10.239Z,87.80
2018-02-14T07:08:37.711Z,87.70
2018-02-14T07:11:05.166Z,87.50
2018-02-14T07:13:32.639Z,87.70
2018-02-14T07:16:00.098Z,87.70
2018-02-14T07:18:27.558Z,87.70
2018-02-14T07:20:55.020Z,87.60
2018-02-14T07:23:28.104Z,87.40
2018-02-14T07:25:55.566Z,87.30
2018-02-14T07:28:23.787Z,87.80
2018-02-14T07:30:51.247Z,87.70
2018-02-14T07:33:18.702Z,87.30
2018-02-14T07:35:46.166Z,86.70
2018-02-14T07:38:13.618Z,86.30
2018-02-14T07:40:41.093Z,85.80
2018-02-14T07:43:08.547Z,85.50
2018-02-14T07:45:36.007Z,84.90
2018-02-14T07:48:03.464Z,84.60
2018-02-14T07:50:30.931Z,84.20
2018-02-14T07:52:58.388Z,83.30
2018-02-14T07:55:25.843Z,82.40
2018-02-14T07:57:53.298Z,81.20
2018-02-14T08:00:20.771Z,79.70
2018-02-14T08:02:48.995Z,77.10
2018-02-14T08:05:16.470Z,77.00
2018-02-14T08:07:43.927Z,75.80
2018-02-14T08:10:11.402Z,74.20
2018-02-14T08:12:38.854Z,72.00
2018-02-14T08:15:06.318Z,70.30
2018-02-14T08:17:33.780Z,67.60
2018-02-14T08:20:01.234Z,65.90
2018-02-14T08:22:28.679Z,63.80
2018-02-14T08:24:56.136Z,63.30
2018-02-14T08:27:23.580Z,62.80
2018-02-14T08:29:51.043Z,61.50
2018-02-14T08:32:18.504Z,60.30
2018-02-14T08:34:45.961Z,58.80
2018-02-14T08:37:13.411Z,58.80
2018-02-14T08:39:40.870Z,59.10
2018-02-14T08:42:08.331Z,58.10
2018-02-14T08:44:35.788Z,58.00
2018-02-14T08:47:03.239Z,57.60
2018-02-14T08:49:30.694Z,57.70
2018-02-14T08:51:58.156Z,56.90
2018-02-14T08:54:25.599Z,56.70
2018-02-14T08:56:53.042Z,56.30
2018-02-14T08:59:20.510Z,56.20
2018-02-14T09:01:47.970Z,55.60
2018-02-14T09:04:15.418Z,55.30
2018-02-14T09:06:42.867Z,55.40
2018-02-14T09:09:10.314Z,55.40
2018-02-14T09:11:37.763Z,54.90
2018-02-14T09:14:05.223Z,55.10
2018-02-14T09:16:32.675Z,56.30
2018-02-14T09:19:00.130Z,56.80
2018-02-14T09:21:27.587Z,56.50
2018-02-14T09:23:55.049Z,57.10
2018-02-14T09:26:22.498Z,58.20
2018-02-14T09:28:49.953Z,59.10
2018-02-14T09:31:17.437Z,60.10
2018-02-14T09:33:44.871Z,61.40
2018-02-14T09:36:12.328Z,60.80
2018-02-14T09:38:39.778Z,61.00
2018-02-14T09:41:07.242Z,61.30
2018-02-14T09:43:34.690Z,61.00
2018-02-14T09:46:02.147Z,60.30
2018-02-14T09:48:29.617Z,59.50
2018-02-14T09:50:57.078Z,58.70
2018-02-14T09:53:24.522Z,58.30
2018-02-14T09:55:51.971Z,57.30
2018-02-14T09:58:19.432Z,57.20
2018-02-14T10:00:46.886Z,56.00
2018-02-14T10:03:14.337Z,54.30
2018-02-14T10:05:41.798Z,54.20
2018-02-14T10:08:09.255Z,53.00
2018-02-14T10:10:36.700Z,51.10
2018-02-14T10:13:04.149Z,49.80
2018-02-14T10:15:31.593Z,49.50
2018-02-14T10:17:59.811Z,47.50
2018-02-14T10:20:27.255Z,47.50
2018-02-14T10:22:54.708Z,47.80
2018-02-14T10:25:22.166Z,46.10
2018-02-14T10:27:49.623Z,46.80
2018-02-14T10:30:17.834Z,46.10
2018-02-14T10:32:45.283Z,46.10
2018-02-14T10:35:12.731Z,44.60
2018-02-14T10:37:40.181Z,43.90
2018-02-14T10:40:07.623Z,43.00
2018-02-14T10:42:35.074Z,41.10
2018-02-14T10:45:02.537Z,38.40
2018-02-14T10:47:29.991Z,36.90
2018-02-14T10:49:57.446Z,36.20
2018-02-14T10:52:24.905Z,36.70
2018-02-14T10:54:52.364Z,35.10
2018-02-14T10:57:19.819Z,36.00
2018-02-14T10:59:47.277Z,36.10
2018-02-14T11:02:14.731Z,37.70
2018-02-14T11:04:47.854Z,36.20
2018-02-14T11:07:18.237Z,37.20
2018-02-14T11:09:45.679Z,33.90
2018-02-14T11:12:13.160Z,35.50
2018-02-14T11:14:40.622Z,37.50
2018-02-14T11:17:08.069Z,35.50
2018-02-14T11:19:35.536Z,34.80
2018-02-14T11:22:02.992Z,34.90
2018-02-14T11:24:30.451Z,33.80
2018-02-14T11:26:57.902Z,34.40
2018-02-14T11:29:25.367Z,34.10
2018-02-14T11:31:52.816Z,34.80
2018-02-14T11:34:20.274Z,34.10
2018-02-14T11:36:47.719Z,34.80
2018-02-14T11:39:15.169Z,34.90
2018-02-14T11:41:42.626Z,36.30
2018-02-14T11:44:10.087Z,35.90
2018-02-14T11:46:37.544Z,36.30
2018-02-14T11:49:05.004Z,34.30
2018-02-14T11:51:33.215Z,33.30
2018-02-14T11:54:00.675Z,33.30
2018-02-14T11:56:28.194Z,32.90
2018-02-14T11:58:55.647Z,31.50
2018-02-14T12:01:23.096Z,34.70
2018-02-14T12:03:50.550Z,36.10
2018-02-14T12:06:18.047Z,36.20
2018-02-14T12:08:45.463Z,35.10
2018-02-14T12:11:12.918Z,33.20
2018-02-14T12:13:40.374Z,33.90
2018-02-14T12:16:07.831Z,34.90
2018-02-14T12:18:35.294Z,33.70
2018-02-14T12:21:02.747Z,32.80
2018-02-14T12:23:30.198Z,31.50
2018-02-14T12:25:58.417Z,33.10
2018-02-14T12:28:25.867Z,33.10
2018-02-14T12:30:53.319Z,33.10
2018-02-14T12:33:20.766Z,34.60
2018-02-14T12:35:48.230Z,34.80
2018-02-14T12:38:15.688Z,34.60
2018-02-14T12:40:43.147Z,33.60
2018-02-14T12:43:10.600Z,33.70
2018-02-14T12:45:38.059Z,34.00
2018-02-14T12:48:05.515Z,35.30
2018-02-14T12:50:32.971Z,34.60
2018-02-14T12:53:00.418Z,34.90
2018-02-14T12:55:27.871Z,34.90
2018-02-14T12:57:55.316Z,34.00
2018-02-14T13:00:22.772Z,35.80
2018-02-14T13:02:50.211Z,34.80
2018-02-14T13:05:18.425Z,34.20
2018-02-14T13:07:45.878Z,34.20
2018-02-14T13:10:13.334Z,33.70
2018-02-14T13:12:40.790Z,35.10
2018-02-14T13:15:08.243Z,34.40
2018-02-14T13:17:35.703Z,34.00
2018-02-14T13:20:03.158Z,34.10
2018-02-14T13:22:30.611Z,34.50
2018-02-14T13:24:58.071Z,35.20
2018-02-14T13:27:25.531Z,35.20
2018-02-14T13:29:52.978Z,35.40
2018-02-14T13:32:20.442Z,34.10
2018-02-14T13:34:48.727Z,34.20
2018-02-14T13:37:16.172Z,35.40
2018-02-14T13:39:43.617Z,34.50
2018-02-14T13:42:11.067Z,33.30
2018-02-14T13:44:38.514Z,33.40
2018-02-14T13:47:05.974Z,34.10
2018-02-14T13:49:33.414Z,33.30
2018-02-14T13:52:00.876Z,31.90
2018-02-14T13:54:28.327Z,31.50
2018-02-14T13:56:55.783Z,30.60
2018-02-14T13:59:23.245Z,30.70
2018-02-14T14:01:50.695Z,30.00
2018-02-14T14:04:18.150Z,29.80
2018-02-14T14:06:45.606Z,30.10
2018-02-14T14:09:13.060Z,32.80
2018-02-14T14:11:40.515Z,33.80
2018-02-14T14:14:07.978Z,34.30
2018-02-14T14:16:35.427Z,35.20
2018-02-14T14:19:02.939Z,35.20
2018-02-14T14:21:30.347Z,35.50
2018-02-14T14:23:57.833Z,37.50
2018-02-14T14:26:25.291Z,36.50
2018-02-14T14:28:52.736Z,36.70
2018-02-14T14:31:20.194Z,36.60
2018-02-14T14:33:47.634Z,36.40
2018-02-14T14:36:15.099Z,36.80
2018-02-14T14:38:42.550Z,38.10
2018-02-14T14:41:10.021Z,36.80
2018-02-14T14:43:37.472Z,36.70
2018-02-14T14:46:04.923Z,37.30
2018-02-14T14:48:32.383Z,37.40
2018-02-14T14:50:59.837Z,37.30
2018-02-14T14:53:27.291Z,37.40
2018-02-14T14:55:54.744Z,37.60
2018-02-14T14:58:22.267Z,38.50
2018-02-14T15:00:50.470Z,38.60
2018-02-14T15:03:18.382Z,38.60
2018-02-14T15:05:46.598Z,38.20
2018-02-14T15:08:14.059Z,38.10
2018-02-14T15:10:42.267Z,38.50
2018-02-14T15:13:09.711Z,38.40
2018-02-14T15:15:37.162Z,38.40
2018-02-14T15:18:04.619Z,39.30
2018-02-14T15:20:32.054Z,39.30
2018-02-14T15:22:59.514Z,39.10
2018-02-14T15:25:26.956Z,40.30
2018-02-14T15:27:54.431Z,40.70
2018-02-14T15:30:21.886Z,40.80
2018-02-14T15:32:49.339Z,40.80
2018-02-14T15:35:16.779Z,40.20
2018-02-14T15:37:44.230Z,41.60
2018-02-14T15:40:11.703Z,41.40
2018-02-14T15:42:39.895Z,41.50
2018-02-14T15:45:07.335Z,41.50
2018-02-14T15:47:34.789Z,42.00
2018-02-14T15:50:02.230Z,41.90
2018-02-14T15:52:29.675Z,42.50
2018-02-14T15:54:57.882Z,42.90
2018-02-14T15:57:25.322Z,42.90
2018-02-14T15:59:52.774Z,43.20
2018-02-14T16:02:20.214Z,43.50
2018-02-14T16:04:48.448Z,44.00
2018-02-14T16:07:15.898Z,44.00
2018-02-14T16:09:43.371Z,43.90
2018-02-14T16:12:10.822Z,44.10
2018-02-14T16:14:38.286Z,44.00
2018-02-14T16:17:05.812Z,44.00
2018-02-14T16:19:33.258Z,44.70
2018-02-14T16:22:00.709Z,44.70
2018-02-14T16:24:28.177Z,44.80
2018-02-14T16:26:55.638Z,45.40
2018-02-14T16:29:23.095Z,45.80
2018-02-14T16:31:50.601Z,46.20
2018-02-14T16:34:18.928Z,46.90
2018-02-14T16:36:46.385Z,46.90
2018-02-14T16:39:14.222Z,46.80
2018-02-14T16:41:41.981Z,47.10
2018-02-14T16:44:09.531Z,47.10
2018-02-14T16:46:37.750Z,47.60
2018-02-14T16:49:05.208Z,47.60
2018-02-14T16:51:32.672Z,48.20
2018-02-14T16:54:00.352Z,48.70
2018-02-14T16:56:29.131Z,49.00
2018-02-14T16:58:57.105Z,49.50
2018-02-14T17:01:24.695Z,50.00
2018-02-14T17:03:52.911Z,50.80
2018-02-14T17:06:20.374Z,50.70
2018-02-14T17:08:47.824Z,50.80
2018-02-14T17:11:15.284Z,50.90
2018-02-14T17:13:42.735Z,51.70
2018-02-14T17:16:10.200Z,52.30
2018-02-14T17:18:37.650Z,53.20
2018-02-14T17:21:05.147Z,54.20
2018-02-14T17:23:33.501Z,55.70
2018-02-14T17:26:01.137Z,55.70
2018-02-14T17:28:28.595Z,57.30
2018-02-14T17:30:56.052Z,58.20
2018-02-14T17:33:23.511Z,58.00
2018-02-14T17:35:50.966Z,59.20
2018-02-14T17:38:18.418Z,59.60
2018-02-14T17:40:45.892Z,60.40
2018-02-14T17:43:13.343Z,61.00
2018-02-14T17:45:40.803Z,61.20
2018-02-14T17:48:08.265Z,62.00
2018-02-14T17:50:35.720Z,62.20
2018-02-14T17:53:03.180Z,62.40
2018-02-14T17:55:30.633Z,61.90
2018-02-14T17:57:58.078Z,61.00
2018-02-14T18:00:25.551Z,60.30
2018-02-14T18:02:53.003Z,60.20
2018-02-14T18:05:20.459Z,61.60
2018-02-14T18:07:47.919Z,61.40
2018-02-14T18:10:15.368Z,62.30
2018-02-14T18:12:42.823Z,62.70
2018-02-14T18:15:10.279Z,61.40
2018-02-14T18:17:37.742Z,63.50
2018-02-14T18:20:05.191Z,63.10
2018-02-14T18:22:32.648Z,63.50
2018-02-14T18:25:00.110Z,63.10
2018-02-14T18:27:27.563Z,64.10
2018-02-14T18:29:55.014Z,64.60
2018-02-14T18:32:22.480Z,64.50
2018-02-14T18:34:49.938Z,65.00
2018-02-14T18:37:17.411Z,65.60
2018-02-14T18:39:44.866Z,66.50
2018-02-14T18:42:12.325Z,67.20
2018-02-14T18:44:39.778Z,67.60
2018-02-14T18:47:07.246Z,67.70
2018-02-14T18:49:34.712Z,67.80
2018-02-14T18:52:02.938Z,67.50
2018-02-14T18:54:30.410Z,67.70
2018-02-14T18:56:57.884Z,67.10
2018-02-14T18:59:25.353Z,66.70
2018-02-14T19:01:53.594Z,67.30
2018-02-14T19:04:21.051Z,67.50
2018-02-14T19:06:48.526Z,67.40
2018-02-14T19:09:15.979Z,68.40
2018-02-14T19:11:43.437Z,68.90
2018-02-14T19:14:10.899Z,68.80
2018-02-14T19:16:39.003Z,69.20
2018-02-14T19:19:06.516Z,70.10
2018-02-14T19:21:34.091Z,71.00
2018-02-14T19:24:01.557Z,71.50
2018-02-14T19:26:29.796Z,72.40
2018-02-14T19:28:57.269Z,72.50
2018-02-14T19:31:24.726Z,72.20
2018-02-14T19:33:52.195Z,71.80
2018-02-14T19:36:20.435Z,72.20
2018-02-14T19:38:47.898Z,72.40
2018-02-14T19:41:15.384Z,71.60
2018-02-14T19:43:43.619Z,68.50
2018-02-14T19:46:11.087Z,67.80
2018-02-14T19:48:38.542Z,68.40
2018-02-14T19:51:05.995Z,68.90
2018-02-14T19:53:33.466Z,70.60
2018-02-14T19:56:00.935Z,71.40
2018-02-14T19:58:28.420Z,72.60
2018-02-14T20:00:55.902Z,72.40
2018-02-14T20:03:24.126Z,73.80
2018-02-14T20:05:51.590Z,73.80
2018-02-14T20:08:19.841Z,73.90
2018-02-14T20:10:47.298Z,73.80
2018-02-14T20:13:14.755Z,73.70
2018-02-14T20:15:42.218Z,73.50
2018-02-14T20:18:09.684Z,73.40
2018-02-14T20:20:37.906Z,74.60
2018-02-14T20:23:05.386Z,74.50
2018-02-14T20:25:32.866Z,74.90
2018-02-14T20:28:00.323Z,74.10
2018-02-14T20:30:27.795Z,71.60
2018-02-14T20:32:56.031Z,71.80
2018-02-14T20:35:23.486Z,71.90
2018-02-14T20:37:50.964Z,71.80
2018-02-14T20:40:18.439Z,72.00
2018-02-14T20:42:46.666Z,72.70
2018-02-14T20:45:14.130Z,72.70
2018-02-14T20:47:41.607Z,73.70
2018-02-14T20:50:09.065Z,74.20
2018-02-14T20:52:36.512Z,74.30
2018-02-14T20:55:03.967Z,74.20
2018-02-14T20:57:31.439Z,74.10
2018-02-14T20:59:58.904Z,73.10
2018-02-14T21:02:27.142Z,72.40
2018-02-14T21:04:54.599Z,72.30
2018-02-14T21:07:22.051Z,72.20
2018-02-14T21:09:49.537Z,72.30
2018-02-14T21:12:17.762Z,72.50
2018-02-14T21:14:45.226Z,72.50
2018-02-14T21:17:12.687Z,72.90
2018-02-14T21:19:40.150Z,73.20
2018-02-14T21:22:07.608Z,73.90
2018-02-14T21:24:35.075Z,72.60
2018-02-14T21:27:02.543Z,71.10
2018-02-14T21:29:30.022Z,69.80
2018-02-14T21:31:57.498Z,70.30
2018-02-14T21:34:25.296Z,71.00
2018-02-14T21:36:52.487Z,71.50
2018-02-14T21:39:19.915Z,72.20
2018-02-14T21:41:47.387Z,72.20
2018-02-14T21:44:15.841Z,72.90
2018-02-14T21:46:43.314Z,72.90
2018-02-14T21:49:10.790Z,73.50
2018-02-14T21:51:39.045Z,75.60
2018-02-14T21:54:06.497Z,75.60
2018-02-14T21:56:33.950Z,75.60
2018-02-14T21:59:01.421Z,75.90
2018-02-14T22:01:29.642Z,76.40
2018-02-14T22:03:57.099Z,76.40
2018-02-14T22:06:25.365Z,76.60
2018-02-14T22:08:52.851Z,76.20
2018-02-14T22:11:20.328Z,76.10
2018-02-14T22:13:47.791Z,76.40
2018-02-14T22:16:15.267Z,76.70
2018-02-14T22:18:42.736Z,76.10
2018-02-14T22:21:10.226Z,75.80
2018-02-14T22:23:37.686Z,75.70
2018-02-14T22:26:05.165Z,75.90
2018-02-14T22:28:32.650Z,76.10
2018-02-14T22:31:00.888Z,77.30
2018-02-14T22:33:28.371Z,77.30
2018-02-14T22:35:56.613Z,78.30
2018-02-14T22:38:24.070Z,78.20
2018-02-14T22:40:51.542Z,78.50
2018-02-14T22:43:19.013Z,78.50
2018-02-14T22:45:47.241Z,78.70
2018-02-14T22:48:14.699Z,78.60
2018-02-14T22:50:42.204Z,78.30
2018-02-14T22:53:09.632Z,78.60
2018-02-14T22:55:37.098Z,76.80
2018-02-14T22:58:04.558Z,75.90
2018-02-14T23:00:32.789Z,75.50
2018-02-14T23:03:00.267Z,74.80
2018-02-14T23:05:27.734Z,73.30
2018-02-14T23:07:56.650Z,72.20
2018-02-14T23:10:24.978Z,71.40
2018-02-14T23:12:52.436Z,71.40
2018-02-14T23:15:19.899Z,70.80
2018-02-14T23:17:47.355Z,70.80
2018-02-14T23:20:14.819Z,70.40
2018-02-14T23:22:42.283Z,69.80
2018-02-14T23:25:09.739Z,69.00
2018-02-14T23:27:37.196Z,68.50
2018-02-14T23:30:04.655Z,68.20
2018-02-14T23:32:32.110Z,68.00
2018-02-14T23:34:59.567Z,67.80
2018-02-14T23:37:27.030Z,68.50
2018-02-14T23:39:54.483Z,68.20
2018-02-14T23:42:21.938Z,67.90
2018-02-14T23:44:49.386Z,67.30
2018-02-14T23:47:17.656Z,66.80
2018-02-14T23:49:45.112Z,66.60
2018-02-14T23:52:12.574Z,66.70
2018-02-14T23:54:40.648Z,66.80
2018-02-14T23:57:08.110Z,66.30
2018-02-14T23:59:35.563Z,65.80
